sensor_id;sensor_type;location;lat;lon;timestamp;P1;durP1;ratioP1;P2;durP2;ratioP2
35943;SDS011;74514;54.776;9.436;2024-02-15T00:00:02;54.97;;;11.95;;
35943;SDS011;74514;54.776;9.436;2024-02-15T00:02:30;49.42;;;11.35;;
35943;SDS011;74514;54.776;9.436;2024-02-15T00:04:58;47.97;;;11.80;;
35943;SDS011;74514;54.776;9.436;2024-02-15T00:07:25;53.97;;;12.02;;
35943;SDS011;74514;54.776;9.436;2024-02-15T00:09:53;51.53;;;12.55;;
35943;SDS011;74514;54.776;9.436;2024-02-15T00:12:21;39.63;;;10.85;;
35943;SDS011;74514;54.776;9.436;2024-02-15T00:14:48;51.88;;;10.77;;
35943;SDS011;74514;54.776;9.436;2024-02-15T00:17:15;49.38;;;9.65;;
35943;SDS011;74514;54.776;9.436;2024-02-15T00:19:43;23.42;;;7.35;;
35943;SDS011;74514;54.776;9.436;2024-02-15T00:22:10;42.88;;;10.07;;
35943;SDS011;74514;54.776;9.436;2024-02-15T00:24:37;35.42;;;8.25;;
35943;SDS011;74514;54.776;9.436;2024-02-15T00:27:05;33.63;;;8.73;;
35943;SDS011;74514;54.776;9.436;2024-02-15T00:29:33;29.92;;;8.68;;
35943;SDS011;74514;54.776;9.436;2024-02-15T00:34:31;31.63;;;7.43;;
35943;SDS011;74514;54.776;9.436;2024-02-15T00:36:59;24.75;;;6.10;;
35943;SDS011;74514;54.776;9.436;2024-02-15T00:39:26;31.48;;;7.25;;
35943;SDS011;74514;54.776;9.436;2024-02-15T00:41:53;29.95;;;6.68;;
35943;SDS011;74514;54.776;9.436;2024-02-15T00:44:23;32.58;;;7.90;;
35943;SDS011;74514;54.776;9.436;2024-02-15T00:46:50;31.90;;;7.45;;
35943;SDS011;74514;54.776;9.436;2024-02-15T00:49:17;30.40;;;7.10;;
35943;SDS011;74514;54.776;9.436;2024-02-15T00:51:48;40.80;;;9.18;;
35943;SDS011;74514;54.776;9.436;2024-02-15T00:54:15;34.90;;;7.75;;
35943;SDS011;74514;54.776;9.436;2024-02-15T00:56:43;38.28;;;8.73;;
35943;SDS011;74514;54.776;9.436;2024-02-15T00:59:11;35.30;;;7.75;;
35943;SDS011;74514;54.776;9.436;2024-02-15T01:01:38;33.17;;;7.65;;
35943;SDS011;74514;54.776;9.436;2024-02-15T01:04:05;41.42;;;8.38;;
35943;SDS011;74514;54.776;9.436;2024-02-15T01:06:33;36.33;;;7.68;;
35943;SDS011;74514;54.776;9.436;2024-02-15T01:09:01;34.88;;;7.60;;
35943;SDS011;74514;54.776;9.436;2024-02-15T01:11:30;41.33;;;8.05;;
35943;SDS011;74514;54.776;9.436;2024-02-15T01:14:00;42.05;;;7.75;;
35943;SDS011;74514;54.776;9.436;2024-02-15T01:16:28;40.70;;;9.50;;
35943;SDS011;74514;54.776;9.436;2024-02-15T01:18:55;29.27;;;6.80;;
35943;SDS011;74514;54.776;9.436;2024-02-15T01:21:23;38.13;;;7.35;;
35943;SDS011;74514;54.776;9.436;2024-02-15T01:23:50;23.50;;;6.15;;
35943;SDS011;74514;54.776;9.436;2024-02-15T01:26:21;31.77;;;7.70;;
35943;SDS011;74514;54.776;9.436;2024-02-15T01:28:48;30.17;;;6.75;;
35943;SDS011;74514;54.776;9.436;2024-02-15T01:31:15;27.95;;;7.97;;
35943;SDS011;74514;54.776;9.436;2024-02-15T01:33:44;38.13;;;8.15;;
35943;SDS011;74514;54.776;9.436;2024-02-15T01:36:16;35.30;;;9.32;;
35943;SDS011;74514;54.776;9.436;2024-02-15T01:38:43;43.83;;;7.55;;
35943;SDS011;74514;54.776;9.436;2024-02-15T01:41:11;36.72;;;9.10;;
35943;SDS011;74514;54.776;9.436;2024-02-15T01:43:42;31.15;;;7.60;;
35943;SDS011;74514;54.776;9.436;2024-02-15T01:46:10;32.22;;;7.40;;
35943;SDS011;74514;54.776;9.436;2024-02-15T01:48:37;31.13;;;7.20;;
35943;SDS011;74514;54.776;9.436;2024-02-15T01:51:06;29.70;;;7.78;;
35943;SDS011;74514;54.776;9.436;2024-02-15T01:53:34;37.90;;;8.55;;
35943;SDS011;74514;54.776;9.436;2024-02-15T01:56:01;36.08;;;8.70;;
35943;SDS011;74514;54.776;9.436;2024-02-15T01:58:29;32.70;;;6.88;;
35943;SDS011;74514;54.776;9.436;2024-02-15T02:00:59;22.20;;;5.38;;
35943;SDS011;74514;54.776;9.436;2024-02-15T02:03:27;29.70;;;7.47;;
35943;SDS011;74514;54.776;9.436;2024-02-15T02:05:54;33.63;;;6.90;;
35943;SDS011;74514;54.776;9.436;2024-02-15T02:08:22;35.05;;;7.70;;
35943;SDS011;74514;54.776;9.436;2024-02-15T02:10:50;42.90;;;10.77;;
35943;SDS011;74514;54.776;9.436;2024-02-15T02:13:17;51.25;;;11.05;;
35943;SDS011;74514;54.776;9.436;2024-02-15T02:15:45;29.40;;;8.15;;
35943;SDS011;74514;54.776;9.436;2024-02-15T02:18:13;27.45;;;7.55;;
35943;SDS011;74514;54.776;9.436;2024-02-15T02:20:40;23.67;;;6.25;;
35943;SDS011;74514;54.776;9.436;2024-02-15T02:23:09;40.30;;;10.13;;
35943;SDS011;74514;54.776;9.436;2024-02-15T02:25:40;53.60;;;12.50;;
35943;SDS011;74514;54.776;9.436;2024-02-15T02:28:09;39.20;;;9.23;;
35943;SDS011;74514;54.776;9.436;2024-02-15T02:30:37;39.63;;;10.00;;
35943;SDS011;74514;54.776;9.436;2024-02-15T02:33:11;36.75;;;8.65;;
35943;SDS011;74514;54.776;9.436;2024-02-15T02:35:39;28.48;;;6.30;;
35943;SDS011;74514;54.776;9.436;2024-02-15T02:38:07;32.47;;;7.40;;
35943;SDS011;74514;54.776;9.436;2024-02-15T02:40:34;27.63;;;6.47;;
35943;SDS011;74514;54.776;9.436;2024-02-15T02:43:02;28.02;;;7.18;;
35943;SDS011;74514;54.776;9.436;2024-02-15T02:45:29;32.15;;;6.75;;
35943;SDS011;74514;54.776;9.436;2024-02-15T02:47:57;30.17;;;7.95;;
35943;SDS011;74514;54.776;9.436;2024-02-15T02:50:24;37.38;;;8.23;;
35943;SDS011;74514;54.776;9.436;2024-02-15T02:52:51;33.17;;;8.50;;
35943;SDS011;74514;54.776;9.436;2024-02-15T02:55:19;31.75;;;8.10;;
35943;SDS011;74514;54.776;9.436;2024-02-15T02:57:47;32.67;;;8.23;;
35943;SDS011;74514;54.776;9.436;2024-02-15T03:00:16;34.28;;;9.18;;
35943;SDS011;74514;54.776;9.436;2024-02-15T03:02:45;30.90;;;9.25;;
35943;SDS011;74514;54.776;9.436;2024-02-15T03:05:12;32.30;;;8.15;;
35943;SDS011;74514;54.776;9.436;2024-02-15T03:07:43;21.75;;;7.28;;
35943;SDS011;74514;54.776;9.436;2024-02-15T03:10:11;29.65;;;8.82;;
35943;SDS011;74514;54.776;9.436;2024-02-15T03:12:41;33.75;;;7.95;;
35943;SDS011;74514;54.776;9.436;2024-02-15T03:15:15;16.35;;;5.05;;
35943;SDS011;74514;54.776;9.436;2024-02-15T03:17:46;36.15;;;9.15;;
35943;SDS011;74514;54.776;9.436;2024-02-15T03:20:13;31.83;;;9.60;;
35943;SDS011;74514;54.776;9.436;2024-02-15T03:25:16;23.40;;;7.13;;
35943;SDS011;74514;54.776;9.436;2024-02-15T03:27:43;37.70;;;8.80;;
35943;SDS011;74514;54.776;9.436;2024-02-15T03:30:10;29.05;;;7.28;;
35943;SDS011;74514;54.776;9.436;2024-02-15T03:32:38;34.53;;;7.03;;
35943;SDS011;74514;54.776;9.436;2024-02-15T03:35:05;18.25;;;4.45;;
35943;SDS011;74514;54.776;9.436;2024-02-15T03:40:04;28.40;;;7.82;;
35943;SDS011;74514;54.776;9.436;2024-02-15T03:42:31;16.23;;;5.40;;
35943;SDS011;74514;54.776;9.436;2024-02-15T03:44:58;24.67;;;4.80;;
35943;SDS011;74514;54.776;9.436;2024-02-15T03:47:26;16.48;;;5.60;;
35943;SDS011;74514;54.776;9.436;2024-02-15T03:49:56;16.50;;;5.78;;
35943;SDS011;74514;54.776;9.436;2024-02-15T03:52:24;22.83;;;6.18;;
35943;SDS011;74514;54.776;9.436;2024-02-15T03:54:51;16.08;;;4.57;;
35943;SDS011;74514;54.776;9.436;2024-02-15T03:57:19;14.05;;;4.15;;
35943;SDS011;74514;54.776;9.436;2024-02-15T03:59:48;12.93;;;4.35;;
35943;SDS011;74514;54.776;9.436;2024-02-15T04:02:20;16.75;;;5.65;;
35943;SDS011;74514;54.776;9.436;2024-02-15T04:04:47;18.33;;;5.18;;
35943;SDS011;74514;54.776;9.436;2024-02-15T04:07:16;20.38;;;6.05;;
35943;SDS011;74514;54.776;9.436;2024-02-15T04:09:43;17.27;;;6.13;;
35943;SDS011;74514;54.776;9.436;2024-02-15T04:12:10;17.13;;;4.68;;
35943;SDS011;74514;54.776;9.436;2024-02-15T04:14:39;11.52;;;4.38;;
35943;SDS011;74514;54.776;9.436;2024-02-15T04:17:07;14.55;;;4.30;;
35943;SDS011;74514;54.776;9.436;2024-02-15T04:19:34;17.98;;;5.13;;
35943;SDS011;74514;54.776;9.436;2024-02-15T04:22:01;18.73;;;5.45;;
35943;SDS011;74514;54.776;9.436;2024-02-15T04:24:31;19.60;;;4.75;;
35943;SDS011;74514;54.776;9.436;2024-02-15T04:26:58;31.67;;;8.07;;
35943;SDS011;74514;54.776;9.436;2024-02-15T04:29:26;30.00;;;8.32;;
35943;SDS011;74514;54.776;9.436;2024-02-15T04:31:53;25.08;;;7.85;;
35943;SDS011;74514;54.776;9.436;2024-02-15T04:34:22;20.50;;;6.63;;
35943;SDS011;74514;54.776;9.436;2024-02-15T04:36:49;21.85;;;7.22;;
35943;SDS011;74514;54.776;9.436;2024-02-15T04:39:17;21.33;;;6.00;;
35943;SDS011;74514;54.776;9.436;2024-02-15T04:41:51;26.02;;;7.10;;
35943;SDS011;74514;54.776;9.436;2024-02-15T04:44:19;16.08;;;4.18;;
35943;SDS011;74514;54.776;9.436;2024-02-15T04:46:49;28.63;;;8.88;;
35943;SDS011;74514;54.776;9.436;2024-02-15T04:49:16;30.40;;;7.43;;
35943;SDS011;74514;54.776;9.436;2024-02-15T04:51:44;33.28;;;11.00;;
35943;SDS011;74514;54.776;9.436;2024-02-15T04:54:11;47.42;;;10.75;;
35943;SDS011;74514;54.776;9.436;2024-02-15T04:56:41;54.70;;;11.82;;
35943;SDS011;74514;54.776;9.436;2024-02-15T04:59:09;67.97;;;13.75;;
35943;SDS011;74514;54.776;9.436;2024-02-15T05:01:38;32.33;;;7.88;;
35943;SDS011;74514;54.776;9.436;2024-02-15T05:04:07;64.63;;;13.43;;
35943;SDS011;74514;54.776;9.436;2024-02-15T05:06:34;51.90;;;9.80;;
35943;SDS011;74514;54.776;9.436;2024-02-15T05:09:04;57.40;;;13.23;;
35943;SDS011;74514;54.776;9.436;2024-02-15T05:11:34;62.60;;;13.05;;
35943;SDS011;74514;54.776;9.436;2024-02-15T05:14:07;71.03;;;14.32;;
35943;SDS011;74514;54.776;9.436;2024-02-15T05:16:35;62.50;;;12.88;;
35943;SDS011;74514;54.776;9.436;2024-02-15T05:19:02;59.67;;;11.90;;
35943;SDS011;74514;54.776;9.436;2024-02-15T05:21:30;73.97;;;14.15;;
35943;SDS011;74514;54.776;9.436;2024-02-15T05:23:58;58.20;;;13.05;;
35943;SDS011;74514;54.776;9.436;2024-02-15T05:26:25;68.47;;;13.75;;
35943;SDS011;74514;54.776;9.436;2024-02-15T05:28:52;68.65;;;13.68;;
35943;SDS011;74514;54.776;9.436;2024-02-15T05:31:20;81.63;;;12.63;;
35943;SDS011;74514;54.776;9.436;2024-02-15T05:33:47;69.68;;;14.38;;
35943;SDS011;74514;54.776;9.436;2024-02-15T05:36:16;58.65;;;10.90;;
35943;SDS011;74514;54.776;9.436;2024-02-15T05:38:48;41.95;;;9.48;;
35943;SDS011;74514;54.776;9.436;2024-02-15T05:41:16;78.45;;;12.77;;
35943;SDS011;74514;54.776;9.436;2024-02-15T05:43:43;82.47;;;14.20;;
35943;SDS011;74514;54.776;9.436;2024-02-15T05:46:10;71.22;;;12.60;;
35943;SDS011;74514;54.776;9.436;2024-02-15T05:48:38;83.50;;;13.70;;
35943;SDS011;74514;54.776;9.436;2024-02-15T05:51:07;99.70;;;13.57;;
35943;SDS011;74514;54.776;9.436;2024-02-15T05:53:35;79.43;;;15.85;;
35943;SDS011;74514;54.776;9.436;2024-02-15T05:56:05;72.32;;;13.73;;
35943;SDS011;74514;54.776;9.436;2024-02-15T05:58:34;78.82;;;14.43;;
35943;SDS011;74514;54.776;9.436;2024-02-15T06:01:01;108.90;;;18.02;;
35943;SDS011;74514;54.776;9.436;2024-02-15T06:03:29;90.63;;;13.73;;
35943;SDS011;74514;54.776;9.436;2024-02-15T06:06:01;84.32;;;15.00;;
35943;SDS011;74514;54.776;9.436;2024-02-15T06:08:34;91.40;;;14.05;;
35943;SDS011;74514;54.776;9.436;2024-02-15T06:11:01;79.88;;;12.80;;
35943;SDS011;74514;54.776;9.436;2024-02-15T06:13:29;113.35;;;16.10;;
35943;SDS011;74514;54.776;9.436;2024-02-15T06:15:56;86.65;;;12.35;;
35943;SDS011;74514;54.776;9.436;2024-02-15T06:18:25;116.40;;;18.25;;
35943;SDS011;74514;54.776;9.436;2024-02-15T06:20:55;95.60;;;15.15;;
35943;SDS011;74514;54.776;9.436;2024-02-15T06:23:24;75.90;;;14.30;;
35943;SDS011;74514;54.776;9.436;2024-02-15T06:25:53;116.80;;;16.10;;
35943;SDS011;74514;54.776;9.436;2024-02-15T06:28:20;119.03;;;17.92;;
35943;SDS011;74514;54.776;9.436;2024-02-15T06:31:10;67.60;;;13.10;;
35943;SDS011;74514;54.776;9.436;2024-02-15T06:33:56;93.07;;;17.85;;
35943;SDS011;74514;54.776;9.436;2024-02-15T06:36:49;113.78;;;16.40;;
35943;SDS011;74514;54.776;9.436;2024-02-15T06:39:35;133.65;;;20.73;;
35943;SDS011;74514;54.776;9.436;2024-02-15T06:42:09;100.28;;;14.50;;
35943;SDS011;74514;54.776;9.436;2024-02-15T06:44:43;158.82;;;22.27;;
35943;SDS011;74514;54.776;9.436;2024-02-15T06:47:11;115.95;;;18.80;;
35943;SDS011;74514;54.776;9.436;2024-02-15T06:49:39;123.90;;;17.95;;
35943;SDS011;74514;54.776;9.436;2024-02-15T06:52:07;73.43;;;11.70;;
35943;SDS011;74514;54.776;9.436;2024-02-15T06:54:34;147.38;;;21.55;;
35943;SDS011;74514;54.776;9.436;2024-02-15T06:57:05;75.40;;;11.63;;
35943;SDS011;74514;54.776;9.436;2024-02-15T06:59:33;141.00;;;20.20;;
35943;SDS011;74514;54.776;9.436;2024-02-15T07:02:01;98.70;;;15.93;;
35943;SDS011;74514;54.776;9.436;2024-02-15T07:04:28;101.95;;;17.65;;
35943;SDS011;74514;54.776;9.436;2024-02-15T07:06:56;145.57;;;20.73;;
35943;SDS011;74514;54.776;9.436;2024-02-15T07:09:24;137.05;;;20.17;;
35943;SDS011;74514;54.776;9.436;2024-02-15T07:11:51;105.32;;;20.90;;
35943;SDS011;74514;54.776;9.436;2024-02-15T07:14:19;106.93;;;17.42;;
35943;SDS011;74514;54.776;9.436;2024-02-15T07:16:47;148.20;;;22.77;;
35943;SDS011;74514;54.776;9.436;2024-02-15T07:19:15;177.80;;;24.50;;
35943;SDS011;74514;54.776;9.436;2024-02-15T07:21:43;110.80;;;18.00;;
35943;SDS011;74514;54.776;9.436;2024-02-15T07:24:11;97.63;;;19.35;;
35943;SDS011;74514;54.776;9.436;2024-02-15T07:26:38;151.90;;;22.60;;
35943;SDS011;74514;54.776;9.436;2024-02-15T07:29:05;135.35;;;23.55;;
35943;SDS011;74514;54.776;9.436;2024-02-15T07:31:33;141.52;;;23.60;;
35943;SDS011;74514;54.776;9.436;2024-02-15T07:34:00;119.60;;;19.65;;
35943;SDS011;74514;54.776;9.436;2024-02-15T07:36:28;132.10;;;22.10;;
35943;SDS011;74514;54.776;9.436;2024-02-15T07:38:56;141.63;;;26.15;;
35943;SDS011;74514;54.776;9.436;2024-02-15T07:41:29;148.52;;;23.20;;
35943;SDS011;74514;54.776;9.436;2024-02-15T07:46:25;121.90;;;19.48;;
35943;SDS011;74514;54.776;9.436;2024-02-15T07:48:52;141.10;;;22.00;;
35943;SDS011;74514;54.776;9.436;2024-02-15T07:51:21;103.97;;;17.52;;
35943;SDS011;74514;54.776;9.436;2024-02-15T07:53:48;88.80;;;15.70;;
35943;SDS011;74514;54.776;9.436;2024-02-15T07:56:16;83.70;;;14.52;;
35943;SDS011;74514;54.776;9.436;2024-02-15T07:58:44;116.28;;;20.10;;
35943;SDS011;74514;54.776;9.436;2024-02-15T08:01:19;110.32;;;19.83;;
35943;SDS011;74514;54.776;9.436;2024-02-15T08:03:52;141.15;;;22.27;;
35943;SDS011;74514;54.776;9.436;2024-02-15T08:06:22;117.03;;;19.77;;
35943;SDS011;74514;54.776;9.436;2024-02-15T08:08:52;128.18;;;22.50;;
35943;SDS011;74514;54.776;9.436;2024-02-15T08:11:20;132.35;;;20.52;;
35943;SDS011;74514;54.776;9.436;2024-02-15T08:13:48;138.30;;;23.95;;
35943;SDS011;74514;54.776;9.436;2024-02-15T08:16:20;139.05;;;23.08;;
35943;SDS011;74514;54.776;9.436;2024-02-15T08:18:51;129.07;;;24.33;;
35943;SDS011;74514;54.776;9.436;2024-02-15T08:21:26;96.25;;;18.42;;
35943;SDS011;74514;54.776;9.436;2024-02-15T08:23:54;108.50;;;18.27;;
35943;SDS011;74514;54.776;9.436;2024-02-15T08:26:22;141.50;;;24.60;;
35943;SDS011;74514;54.776;9.436;2024-02-15T08:28:50;150.90;;;23.15;;
35943;SDS011;74514;54.776;9.436;2024-02-15T08:31:17;158.65;;;25.15;;
35943;SDS011;74514;54.776;9.436;2024-02-15T08:33:46;135.35;;;22.67;;
35943;SDS011;74514;54.776;9.436;2024-02-15T08:36:13;125.20;;;22.70;;
35943;SDS011;74514;54.776;9.436;2024-02-15T08:38:41;99.70;;;19.60;;
35943;SDS011;74514;54.776;9.436;2024-02-15T08:41:09;136.70;;;24.50;;
35943;SDS011;74514;54.776;9.436;2024-02-15T08:43:38;89.43;;;19.00;;
35943;SDS011;74514;54.776;9.436;2024-02-15T08:46:08;98.10;;;15.80;;
35943;SDS011;74514;54.776;9.436;2024-02-15T08:48:35;109.90;;;17.80;;
35943;SDS011;74514;54.776;9.436;2024-02-15T08:51:03;77.32;;;16.90;;
35943;SDS011;74514;54.776;9.436;2024-02-15T08:53:33;69.75;;;15.77;;
35943;SDS011;74514;54.776;9.436;2024-02-15T08:56:00;79.25;;;16.40;;
35943;SDS011;74514;54.776;9.436;2024-02-15T08:58:28;67.38;;;15.73;;
35943;SDS011;74514;54.776;9.436;2024-02-15T09:00:57;84.15;;;17.73;;
35943;SDS011;74514;54.776;9.436;2024-02-15T09:03:25;63.33;;;11.90;;
35943;SDS011;74514;54.776;9.436;2024-02-15T09:05:52;70.13;;;16.58;;
35943;SDS011;74514;54.776;9.436;2024-02-15T09:08:20;52.88;;;12.20;;
35943;SDS011;74514;54.776;9.436;2024-02-15T09:10:49;33.85;;;8.95;;
35943;SDS011;74514;54.776;9.436;2024-02-15T09:13:16;53.10;;;10.65;;
35943;SDS011;74514;54.776;9.436;2024-02-15T09:15:43;39.13;;;8.85;;
35943;SDS011;74514;54.776;9.436;2024-02-15T09:18:11;43.67;;;9.50;;
35943;SDS011;74514;54.776;9.436;2024-02-15T09:20:38;36.33;;;9.80;;
35943;SDS011;74514;54.776;9.436;2024-02-15T09:23:12;49.80;;;10.23;;
35943;SDS011;74514;54.776;9.436;2024-02-15T09:25:39;35.05;;;9.10;;
35943;SDS011;74514;54.776;9.436;2024-02-15T09:28:06;32.45;;;8.27;;
35943;SDS011;74514;54.776;9.436;2024-02-15T09:30:34;35.95;;;8.45;;
35943;SDS011;74514;54.776;9.436;2024-02-15T09:33:02;41.22;;;9.45;;
35943;SDS011;74514;54.776;9.436;2024-02-15T09:35:33;60.08;;;11.35;;
35943;SDS011;74514;54.776;9.436;2024-02-15T09:38:00;65.57;;;12.45;;
35943;SDS011;74514;54.776;9.436;2024-02-15T09:40:28;62.08;;;11.13;;
35943;SDS011;74514;54.776;9.436;2024-02-15T09:42:56;41.88;;;10.40;;
35943;SDS011;74514;54.776;9.436;2024-02-15T09:45:24;56.70;;;10.88;;
35943;SDS011;74514;54.776;9.436;2024-02-15T09:47:52;41.55;;;9.73;;
35943;SDS011;74514;54.776;9.436;2024-02-15T09:50:23;36.63;;;8.85;;
35943;SDS011;74514;54.776;9.436;2024-02-15T09:52:52;24.00;;;7.60;;
35943;SDS011;74514;54.776;9.436;2024-02-15T09:55:20;54.95;;;12.20;;
35943;SDS011;74514;54.776;9.436;2024-02-15T09:57:50;48.92;;;11.00;;
35943;SDS011;74514;54.776;9.436;2024-02-15T10:00:18;58.38;;;12.82;;
35943;SDS011;74514;54.776;9.436;2024-02-15T10:02:51;72.45;;;13.75;;
35943;SDS011;74514;54.776;9.436;2024-02-15T10:05:23;69.18;;;14.30;;
35943;SDS011;74514;54.776;9.436;2024-02-15T10:07:50;73.18;;;15.35;;
35943;SDS011;74514;54.776;9.436;2024-02-15T10:10:24;69.35;;;14.15;;
35943;SDS011;74514;54.776;9.436;2024-02-15T10:12:53;72.75;;;13.30;;
35943;SDS011;74514;54.776;9.436;2024-02-15T10:15:27;60.80;;;11.45;;
35943;SDS011;74514;54.776;9.436;2024-02-15T10:18:00;57.53;;;12.32;;
35943;SDS011;74514;54.776;9.436;2024-02-15T10:25:28;57.75;;;13.90;;
35943;SDS011;74514;54.776;9.436;2024-02-15T10:28:30;50.00;;;11.80;;
35943;SDS011;74514;54.776;9.436;2024-02-15T10:30:55;35.28;;;7.47;;
35943;SDS011;74514;54.776;9.436;2024-02-15T10:33:28;48.80;;;10.57;;
35943;SDS011;74514;54.776;9.436;2024-02-15T10:36:10;50.13;;;9.60;;
35943;SDS011;74514;54.776;9.436;2024-02-15T10:38:40;57.65;;;12.25;;
35943;SDS011;74514;54.776;9.436;2024-02-15T10:41:09;41.95;;;9.25;;
35943;SDS011;74514;54.776;9.436;2024-02-15T10:43:38;49.03;;;11.75;;
35943;SDS011;74514;54.776;9.436;2024-02-15T10:46:08;55.38;;;12.63;;
35943;SDS011;74514;54.776;9.436;2024-02-15T10:48:38;52.25;;;11.52;;
35943;SDS011;74514;54.776;9.436;2024-02-15T10:51:09;52.95;;;12.27;;
35943;SDS011;74514;54.776;9.436;2024-02-15T10:53:37;53.30;;;12.18;;
35943;SDS011;74514;54.776;9.436;2024-02-15T10:58:42;45.55;;;11.00;;
35943;SDS011;74514;54.776;9.436;2024-02-15T11:01:15;41.78;;;10.18;;
35943;SDS011;74514;54.776;9.436;2024-02-15T11:03:51;42.72;;;11.48;;
35943;SDS011;74514;54.776;9.436;2024-02-15T11:06:21;52.38;;;12.55;;
35943;SDS011;74514;54.776;9.436;2024-02-15T11:08:49;41.08;;;9.93;;
35943;SDS011;74514;54.776;9.436;2024-02-15T11:11:17;37.15;;;9.05;;
35943;SDS011;74514;54.776;9.436;2024-02-15T11:13:48;48.30;;;14.43;;
35943;SDS011;74514;54.776;9.436;2024-02-15T11:22:04;26.85;;;7.35;;
35943;SDS011;74514;54.776;9.436;2024-02-15T11:24:36;36.78;;;7.53;;
35943;SDS011;74514;54.776;9.436;2024-02-15T11:27:04;30.55;;;7.43;;
35943;SDS011;74514;54.776;9.436;2024-02-15T11:35:15;21.60;;;5.90;;
35943;SDS011;74514;54.776;9.436;2024-02-15T11:37:50;24.10;;;6.63;;
35943;SDS011;74514;54.776;9.436;2024-02-15T11:40:18;19.02;;;5.68;;
35943;SDS011;74514;54.776;9.436;2024-02-15T11:42:46;20.73;;;6.57;;
35943;SDS011;74514;54.776;9.436;2024-02-15T11:45:13;27.30;;;7.82;;
35943;SDS011;74514;54.776;9.436;2024-02-15T11:47:42;23.45;;;6.82;;
35943;SDS011;74514;54.776;9.436;2024-02-15T11:50:10;19.13;;;7.40;;
35943;SDS011;74514;54.776;9.436;2024-02-15T11:52:39;20.60;;;6.70;;
35943;SDS011;74514;54.776;9.436;2024-02-15T11:55:08;25.02;;;8.13;;
35943;SDS011;74514;54.776;9.436;2024-02-15T11:57:37;25.90;;;7.20;;
35943;SDS011;74514;54.776;9.436;2024-02-15T12:00:24;29.05;;;9.05;;
35943;SDS011;74514;54.776;9.436;2024-02-15T12:03:10;22.98;;;7.55;;
35943;SDS011;74514;54.776;9.436;2024-02-15T12:05:56;24.73;;;8.35;;
35943;SDS011;74514;54.776;9.436;2024-02-15T12:08:45;26.95;;;8.05;;
35943;SDS011;74514;54.776;9.436;2024-02-15T12:11:32;29.08;;;8.23;;
35943;SDS011;74514;54.776;9.436;2024-02-15T12:14:18;22.20;;;7.13;;
35943;SDS011;74514;54.776;9.436;2024-02-15T12:17:05;23.10;;;8.77;;
35943;SDS011;74514;54.776;9.436;2024-02-15T12:19:53;25.38;;;7.97;;
35943;SDS011;74514;54.776;9.436;2024-02-15T12:22:24;20.02;;;6.45;;
35943;SDS011;74514;54.776;9.436;2024-02-15T12:24:53;23.88;;;8.05;;
35943;SDS011;74514;54.776;9.436;2024-02-15T12:29:55;21.33;;;6.70;;
35943;SDS011;74514;54.776;9.436;2024-02-15T12:32:22;27.75;;;6.97;;
35943;SDS011;74514;54.776;9.436;2024-02-15T12:34:52;25.23;;;7.47;;
35943;SDS011;74514;54.776;9.436;2024-02-15T12:37:43;27.20;;;8.02;;
35943;SDS011;74514;54.776;9.436;2024-02-15T12:40:14;26.15;;;6.78;;
35943;SDS011;74514;54.776;9.436;2024-02-15T12:42:44;22.70;;;6.47;;
35943;SDS011;74514;54.776;9.436;2024-02-15T12:45:17;21.27;;;7.90;;
35943;SDS011;74514;54.776;9.436;2024-02-15T12:47:52;27.67;;;8.43;;
35943;SDS011;74514;54.776;9.436;2024-02-15T12:50:20;28.52;;;8.30;;
35943;SDS011;74514;54.776;9.436;2024-02-15T12:52:49;25.42;;;6.97;;
35943;SDS011;74514;54.776;9.436;2024-02-15T12:55:17;21.08;;;6.05;;
35943;SDS011;74514;54.776;9.436;2024-02-15T12:57:52;25.65;;;7.88;;
35943;SDS011;74514;54.776;9.436;2024-02-15T13:00:21;25.33;;;7.75;;
35943;SDS011;74514;54.776;9.436;2024-02-15T13:02:49;23.90;;;8.32;;
35943;SDS011;74514;54.776;9.436;2024-02-15T13:05:17;29.52;;;8.10;;
35943;SDS011;74514;54.776;9.436;2024-02-15T13:07:46;23.35;;;7.10;;
35943;SDS011;74514;54.776;9.436;2024-02-15T13:10:13;33.63;;;8.77;;
35943;SDS011;74514;54.776;9.436;2024-02-15T13:12:42;27.15;;;8.23;;
35943;SDS011;74514;54.776;9.436;2024-02-15T13:15:11;29.92;;;9.82;;
35943;SDS011;74514;54.776;9.436;2024-02-15T13:17:45;22.58;;;7.35;;
35943;SDS011;74514;54.776;9.436;2024-02-15T13:20:13;28.17;;;9.70;;
35943;SDS011;74514;54.776;9.436;2024-02-15T13:22:41;31.35;;;8.32;;
35943;SDS011;74514;54.776;9.436;2024-02-15T13:25:10;28.95;;;8.38;;
35943;SDS011;74514;54.776;9.436;2024-02-15T13:27:38;29.52;;;9.63;;
35943;SDS011;74514;54.776;9.436;2024-02-15T13:30:05;21.95;;;8.20;;
35943;SDS011;74514;54.776;9.436;2024-02-15T13:32:36;28.00;;;8.50;;
35943;SDS011;74514;54.776;9.436;2024-02-15T13:35:05;26.33;;;9.13;;
35943;SDS011;74514;54.776;9.436;2024-02-15T13:38:01;31.08;;;9.20;;
35943;SDS011;74514;54.776;9.436;2024-02-15T13:40:28;24.73;;;8.68;;
35943;SDS011;74514;54.776;9.436;2024-02-15T13:42:57;27.55;;;9.18;;
35943;SDS011;74514;54.776;9.436;2024-02-15T13:45:32;25.17;;;8.30;;
35943;SDS011;74514;54.776;9.436;2024-02-15T13:48:01;25.63;;;8.82;;
35943;SDS011;74514;54.776;9.436;2024-02-15T13:50:29;25.67;;;8.73;;
35943;SDS011;74514;54.776;9.436;2024-02-15T13:52:57;26.98;;;8.60;;
35943;SDS011;74514;54.776;9.436;2024-02-15T13:55:25;26.35;;;8.77;;
35943;SDS011;74514;54.776;9.436;2024-02-15T13:57:53;24.02;;;7.57;;
35943;SDS011;74514;54.776;9.436;2024-02-15T14:00:20;19.23;;;7.35;;
35943;SDS011;74514;54.776;9.436;2024-02-15T14:03:02;22.42;;;7.90;;
35943;SDS011;74514;54.776;9.436;2024-02-15T14:05:35;27.67;;;7.85;;
35943;SDS011;74514;54.776;9.436;2024-02-15T14:08:03;24.75;;;7.07;;
35943;SDS011;74514;54.776;9.436;2024-02-15T14:10:36;20.58;;;6.93;;
35943;SDS011;74514;54.776;9.436;2024-02-15T14:13:04;22.13;;;6.55;;
35943;SDS011;74514;54.776;9.436;2024-02-15T14:15:38;19.40;;;6.60;;
35943;SDS011;74514;54.776;9.436;2024-02-15T14:20:35;22.00;;;6.78;;
35943;SDS011;74514;54.776;9.436;2024-02-15T14:23:03;20.83;;;6.22;;
35943;SDS011;74514;54.776;9.436;2024-02-15T14:25:33;22.65;;;7.47;;
35943;SDS011;74514;54.776;9.436;2024-02-15T14:30:30;15.48;;;5.40;;
35943;SDS011;74514;54.776;9.436;2024-02-15T14:33:16;16.27;;;5.95;;
35943;SDS011;74514;54.776;9.436;2024-02-15T14:35:49;18.23;;;5.97;;
35943;SDS011;74514;54.776;9.436;2024-02-15T14:38:17;19.77;;;6.60;;
35943;SDS011;74514;54.776;9.436;2024-02-15T14:40:47;16.38;;;6.35;;
35943;SDS011;74514;54.776;9.436;2024-02-15T14:43:23;18.48;;;6.93;;
35943;SDS011;74514;54.776;9.436;2024-02-15T14:45:51;18.75;;;6.00;;
35943;SDS011;74514;54.776;9.436;2024-02-15T14:48:20;16.77;;;6.20;;
35943;SDS011;74514;54.776;9.436;2024-02-15T14:50:48;20.08;;;6.60;;
35943;SDS011;74514;54.776;9.436;2024-02-15T14:53:18;17.65;;;6.93;;
35943;SDS011;74514;54.776;9.436;2024-02-15T14:55:46;25.55;;;7.53;;
35943;SDS011;74514;54.776;9.436;2024-02-15T14:58:14;20.27;;;6.10;;
35943;SDS011;74514;54.776;9.436;2024-02-15T15:00:48;22.27;;;7.05;;
35943;SDS011;74514;54.776;9.436;2024-02-15T15:03:16;20.55;;;7.32;;
35943;SDS011;74514;54.776;9.436;2024-02-15T15:05:44;19.63;;;5.72;;
35943;SDS011;74514;54.776;9.436;2024-02-15T15:08:31;25.55;;;7.72;;
35943;SDS011;74514;54.776;9.436;2024-02-15T15:11:18;19.23;;;6.75;;
35943;SDS011;74514;54.776;9.436;2024-02-15T15:14:04;21.15;;;7.53;;
35943;SDS011;74514;54.776;9.436;2024-02-15T15:16:33;14.85;;;5.57;;
35943;SDS011;74514;54.776;9.436;2024-02-15T15:19:01;17.70;;;6.78;;